HAZ8067 ZSHC-ZUUU
Flight info
| Callsign | HAZ8067 |
|---|---|
| Flight time | N/A |
| Altitude | 32100 |
| Route | NIVIK8D NIVIK W135 DOGVI W545 VEMEX W73 MADUK W51 LEGIV W164 ADGOL W50 XSH W80 URGEG W231 EKOKA EKOKA8L |
| Aircraft | A320/M-SDE3FGHIRWY/LB1 |
Departure
| Time | 2026-04-27 06:30 |
|---|---|
| Airport | Hangzhou Xiaoshan International Airport (ZSHC) |
Arrival
| Time | N/A |
|---|---|
| Airport | Chengdu Shuangliu International Airport (ZUUU) |
| Time | Latitude | Longitude | Altitude | Speed | Heading |
|---|---|---|---|---|---|
| 2026-04-27 06:07 | 30.24121 | 120.42803 | 32 ft | 0 kts | 234° |
| 2026-04-27 06:21 | 30.24122 | 120.42805 | 32 ft | 2 kts | 234° |
| 2026-04-27 06:21 | 30.24134 | 120.42825 | 32 ft | 3 kts | 234° |
| 2026-04-27 06:21 | 30.24145 | 120.42844 | 31 ft | 3 kts | 258° |
| 2026-04-27 06:22 | 30.24144 | 120.42864 | 32 ft | 3 kts | 311° |
| 2026-04-27 06:22 | 30.24128 | 120.42879 | 29 ft | 3 kts | 331° |
| 2026-04-27 06:22 | 30.24119 | 120.42885 | 31 ft | 0 kts | 333° |
| 2026-04-27 06:24 | 30.24129 | 120.42879 | 32 ft | 7 kts | 333° |
| 2026-04-27 06:24 | 30.24204 | 120.42835 | 32 ft | 16 kts | 333° |
| 2026-04-27 06:25 | 30.24289 | 120.42794 | 32 ft | 11 kts | 1° |
| 2026-04-27 06:25 | 30.24352 | 120.42798 | 32 ft | 8 kts | 336° |
| 2026-04-27 06:25 | 30.24401 | 120.42810 | 32 ft | 7 kts | 48° |
| 2026-04-27 06:25 | 30.24433 | 120.42874 | 31 ft | 13 kts | 62° |
| 2026-04-27 06:26 | 30.24488 | 120.42998 | 32 ft | 21 kts | 64° |
| 2026-04-27 06:26 | 30.24564 | 120.43172 | 32 ft | 25 kts | 63° |
| 2026-04-27 06:26 | 30.24642 | 120.43346 | 32 ft | 21 kts | 63° |
| 2026-04-27 06:26 | 30.24696 | 120.43450 | 32 ft | 12 kts | 36° |
| 2026-04-27 06:27 | 30.24763 | 120.43438 | 32 ft | 8 kts | 8° |
| 2026-04-27 06:27 | 30.24805 | 120.43494 | 31 ft | 14 kts | 59° |
| 2026-04-27 06:27 | 30.24872 | 120.43641 | 32 ft | 26 kts | 63° |
| 2026-04-27 06:27 | 30.24959 | 120.43837 | 31 ft | 28 kts | 62° |
| 2026-04-27 06:28 | 30.25027 | 120.43991 | 32 ft | 14 kts | 64° |
| 2026-04-27 06:28 | 30.25093 | 120.44033 | 32 ft | 10 kts | 339° |
| 2026-04-27 06:28 | 30.25141 | 120.44006 | 33 ft | 8 kts | 334° |
| 2026-04-27 06:28 | 30.25200 | 120.43947 | 32 ft | 11 kts | 271° |
| 2026-04-27 06:29 | 30.25181 | 120.43905 | 32 ft | 0 kts | 242° |
| 2026-04-27 06:29 | 30.25075 | 120.43666 | 31 ft | 70 kts | 243° |
| 2026-04-27 06:29 | 30.24755 | 120.42942 | 32 ft | 130 kts | 243° |
| 2026-04-27 06:30 | 30.24269 | 120.41845 | 107 ft | 169 kts | 243° |
| 2026-04-27 06:30 | 30.23730 | 120.40626 | 714 ft | 172 kts | 243° |
| 2026-04-27 06:30 | 30.23178 | 120.39382 | 1395 ft | 174 kts | 243° |
| 2026-04-27 06:30 | 30.22622 | 120.38133 | 2007 ft | 179 kts | 243° |
| 2026-04-27 06:31 | 30.22017 | 120.36780 | 2277 ft | 200 kts | 243° |
| 2026-04-27 06:31 | 30.21342 | 120.35268 | 2484 ft | 224 kts | 243° |
| 2026-04-27 06:31 | 30.20589 | 120.33578 | 2806 ft | 249 kts | 243° |
| 2026-04-27 06:31 | 30.19772 | 120.31742 | 3370 ft | 262 kts | 243° |
| 2026-04-27 06:32 | 30.18931 | 120.29855 | 4198 ft | 265 kts | 243° |
| 2026-04-27 06:32 | 30.18083 | 120.27955 | 5064 ft | 267 kts | 243° |
| 2026-04-27 06:32 | 30.17226 | 120.26031 | 5911 ft | 270 kts | 243° |
| 2026-04-27 06:32 | 30.16364 | 120.24091 | 6735 ft | 273 kts | 243° |
| 2026-04-27 06:33 | 30.15491 | 120.22127 | 7522 ft | 276 kts | 243° |
| 2026-04-27 06:33 | 30.14608 | 120.20143 | 8290 ft | 279 kts | 243° |
| 2026-04-27 06:33 | 30.13602 | 120.18206 | 9072 ft | 284 kts | 235° |
| 2026-04-27 06:33 | 30.12439 | 120.16345 | 9855 ft | 287 kts | 235° |
| 2026-04-27 06:34 | 30.11263 | 120.14466 | 10555 ft | 290 kts | 235° |
| 2026-04-27 06:34 | 30.10076 | 120.12570 | 11284 ft | 292 kts | 235° |
| 2026-04-27 06:34 | 30.08884 | 120.10661 | 12023 ft | 294 kts | 235° |
| 2026-04-27 06:34 | 30.07686 | 120.08737 | 12762 ft | 296 kts | 235° |
| 2026-04-27 06:35 | 30.06479 | 120.06801 | 13496 ft | 298 kts | 235° |
| 2026-04-27 06:35 | 30.05264 | 120.04858 | 14188 ft | 299 kts | 235° |
| 2026-04-27 06:35 | 30.04039 | 120.02907 | 14584 ft | 300 kts | 236° |
| 2026-04-27 06:35 | 30.02822 | 120.00966 | 14694 ft | 298 kts | 236° |
| 2026-04-27 06:36 | 30.01688 | 119.98970 | 14712 ft | 303 kts | 242° |
| 2026-04-27 06:36 | 30.00608 | 119.96768 | 14706 ft | 328 kts | 242° |
| 2026-04-27 06:36 | 29.99846 | 119.95221 | 14712 ft | 343 kts | 242° |
| 2026-04-27 06:36 | 29.98625 | 119.92753 | 14712 ft | 365 kts | 241° |
| 2026-04-27 06:37 | 29.96925 | 119.89336 | 14712 ft | 374 kts | 241° |
| 2026-04-27 06:37 | 29.95608 | 119.86696 | 14711 ft | 375 kts | 241° |
| 2026-04-27 06:37 | 29.94742 | 119.84963 | 14895 ft | 378 kts | 241° |
| 2026-04-27 06:37 | 29.93007 | 119.81483 | 15732 ft | 377 kts | 242° |
| 2026-04-27 06:38 | 29.91702 | 119.78865 | 16363 ft | 377 kts | 242° |
| 2026-04-27 06:38 | 29.90396 | 119.76244 | 16983 ft | 377 kts | 242° |
| 2026-04-27 06:38 | 29.89513 | 119.74471 | 17386 ft | 378 kts | 242° |
| 2026-04-27 06:38 | 29.88204 | 119.71843 | 17936 ft | 379 kts | 242° |
| 2026-04-27 06:39 | 29.86889 | 119.69211 | 18443 ft | 380 kts | 242° |
| 2026-04-27 06:39 | 29.85557 | 119.66570 | 18853 ft | 383 kts | 240° |
| 2026-04-27 06:39 | 29.84062 | 119.64062 | 19256 ft | 387 kts | 237° |
| 2026-04-27 06:39 | 29.82506 | 119.61505 | 19577 ft | 392 kts | 237° |
| 2026-04-27 06:40 | 29.80933 | 119.58923 | 19932 ft | 395 kts | 237° |
| 2026-04-27 06:40 | 29.79344 | 119.56321 | 20296 ft | 399 kts | 237° |
| 2026-04-27 06:40 | 29.77742 | 119.53700 | 20662 ft | 402 kts | 237° |
| 2026-04-27 06:40 | 29.76127 | 119.51055 | 21008 ft | 406 kts | 237° |
| 2026-04-27 06:41 | 29.74503 | 119.48391 | 21294 ft | 408 kts | 237° |
| 2026-04-27 06:41 | 29.72865 | 119.45706 | 21578 ft | 411 kts | 237° |
| 2026-04-27 06:41 | 29.71215 | 119.43002 | 21916 ft | 414 kts | 237° |
| 2026-04-27 06:41 | 29.69554 | 119.40280 | 22253 ft | 417 kts | 237° |
| 2026-04-27 06:42 | 29.67879 | 119.37542 | 22556 ft | 421 kts | 237° |
| 2026-04-27 06:42 | 29.66185 | 119.34780 | 22880 ft | 424 kts | 237° |
| 2026-04-27 06:42 | 29.64534 | 119.31968 | 23198 ft | 424 kts | 242° |
| 2026-04-27 06:42 | 29.63254 | 119.28917 | 23507 ft | 424 kts | 250° |
| 2026-04-27 06:43 | 29.62163 | 119.25757 | 23798 ft | 426 kts | 250° |
| 2026-04-27 06:43 | 29.61063 | 119.22583 | 24091 ft | 429 kts | 250° |
| 2026-04-27 06:43 | 29.59954 | 119.19399 | 24387 ft | 430 kts | 250° |
| 2026-04-27 06:43 | 29.58841 | 119.16207 | 24667 ft | 431 kts | 250° |
| 2026-04-27 06:44 | 29.57724 | 119.13004 | 24956 ft | 433 kts | 250° |
| 2026-04-27 06:44 | 29.56602 | 119.09792 | 25235 ft | 434 kts | 250° |
| 2026-04-27 06:44 | 29.55474 | 119.06572 | 25507 ft | 435 kts | 250° |
| 2026-04-27 06:44 | 29.54343 | 119.03341 | 25785 ft | 436 kts | 250° |
| 2026-04-27 06:45 | 29.53210 | 119.00106 | 26043 ft | 438 kts | 250° |
| 2026-04-27 06:45 | 29.52072 | 118.96857 | 26308 ft | 439 kts | 250° |
| 2026-04-27 06:45 | 29.50933 | 118.93600 | 26585 ft | 440 kts | 250° |
| 2026-04-27 06:45 | 29.50025 | 118.90250 | 26856 ft | 439 kts | 258° |
| 2026-04-27 06:46 | 29.49562 | 118.86800 | 27232 ft | 437 kts | 263° |
| 2026-04-27 06:46 | 29.49183 | 118.83352 | 27624 ft | 435 kts | 263° |
| 2026-04-27 06:46 | 29.48799 | 118.79916 | 28011 ft | 433 kts | 263° |
| 2026-04-27 06:46 | 29.48412 | 118.76494 | 28397 ft | 432 kts | 263° |
| 2026-04-27 06:47 | 29.48021 | 118.73082 | 28786 ft | 430 kts | 263° |
| 2026-04-27 06:47 | 29.47629 | 118.69682 | 29159 ft | 429 kts | 263° |
| 2026-04-27 06:47 | 29.47239 | 118.66288 | 29546 ft | 428 kts | 263° |
| 2026-04-27 06:47 | 29.46852 | 118.62910 | 29898 ft | 427 kts | 263° |
| 2026-04-27 06:48 | 29.46467 | 118.59532 | 30235 ft | 426 kts | 263° |
| 2026-04-27 06:48 | 29.46085 | 118.56169 | 30544 ft | 425 kts | 263° |
| 2026-04-27 06:48 | 29.45703 | 118.52808 | 30840 ft | 425 kts | 263° |
| 2026-04-27 06:48 | 29.45103 | 118.49493 | 31102 ft | 426 kts | 254° |
| 2026-04-27 06:49 | 29.44061 | 118.46314 | 31410 ft | 426 kts | 250° |
| 2026-04-27 06:49 | 29.42938 | 118.43172 | 31708 ft | 425 kts | 250° |
| 2026-04-27 06:49 | 29.41819 | 118.40039 | 31961 ft | 425 kts | 250° |
| 2026-04-27 06:49 | 29.40696 | 118.36890 | 32026 ft | 428 kts | 250° |
| 2026-04-27 06:50 | 29.38421 | 118.30497 | 32019 ft | 436 kts | 250° |
| 2026-04-27 06:50 | 29.36142 | 118.24084 | 32022 ft | 438 kts | 250° |
| 2026-04-27 06:51 | 29.33840 | 118.17619 | 32021 ft | 438 kts | 250° |
| 2026-04-27 06:51 | 29.31524 | 118.11162 | 32019 ft | 438 kts | 249° |
| 2026-04-27 06:52 | 29.29206 | 118.04715 | 32019 ft | 438 kts | 249° |
| 2026-04-27 06:52 | 29.26893 | 117.98259 | 32011 ft | 438 kts | 250° |
| 2026-04-27 06:53 | 29.24585 | 117.91798 | 32004 ft | 438 kts | 249° |
| 2026-04-27 06:53 | 29.22255 | 117.85340 | 31988 ft | 439 kts | 249° |
| 2026-04-27 06:54 | 29.19918 | 117.78886 | 31993 ft | 439 kts | 249° |
| 2026-04-27 06:54 | 29.17585 | 117.72415 | 31993 ft | 440 kts | 249° |
| 2026-04-27 06:55 | 29.15249 | 117.65941 | 31992 ft | 440 kts | 249° |
| 2026-04-27 06:55 | 29.12900 | 117.59471 | 31997 ft | 441 kts | 249° |
| 2026-04-27 06:56 | 29.10540 | 117.53002 | 31995 ft | 441 kts | 249° |
| 2026-04-27 06:56 | 29.08192 | 117.46528 | 31998 ft | 441 kts | 250° |
| 2026-04-27 06:57 | 29.05884 | 117.40028 | 31983 ft | 441 kts | 250° |
| 2026-04-27 06:57 | 29.03571 | 117.33526 | 31991 ft | 442 kts | 250° |
| 2026-04-27 06:58 | 29.00080 | 117.23817 | 31992 ft | 443 kts | 250° |
| 2026-04-27 06:59 | 28.97774 | 117.17300 | 31994 ft | 443 kts | 250° |
| 2026-04-27 06:59 | 28.95477 | 117.10772 | 31992 ft | 443 kts | 250° |
| 2026-04-27 07:00 | 28.93168 | 117.04245 | 31993 ft | 444 kts | 250° |
| 2026-04-27 07:00 | 28.90844 | 116.97720 | 31983 ft | 444 kts | 250° |
| 2026-04-27 07:01 | 28.88516 | 116.91188 | 31988 ft | 444 kts | 250° |
| 2026-04-27 07:01 | 28.86187 | 116.84656 | 31990 ft | 445 kts | 250° |
| 2026-04-27 07:02 | 28.83858 | 116.78123 | 31991 ft | 445 kts | 249° |
| 2026-04-27 07:02 | 28.81522 | 116.71587 | 31990 ft | 445 kts | 249° |
| 2026-04-27 07:03 | 28.79177 | 116.65054 | 31992 ft | 445 kts | 249° |
| 2026-04-27 07:03 | 28.76833 | 116.58523 | 31992 ft | 445 kts | 249° |
| 2026-04-27 07:04 | 28.74483 | 116.51996 | 31980 ft | 445 kts | 249° |
| 2026-04-27 07:04 | 28.72126 | 116.45467 | 31979 ft | 446 kts | 249° |
| 2026-04-27 07:05 | 28.69767 | 116.38930 | 31981 ft | 446 kts | 249° |
| 2026-04-27 07:05 | 28.67413 | 116.32394 | 31981 ft | 446 kts | 249° |
| 2026-04-27 07:06 | 28.65044 | 116.25860 | 31979 ft | 446 kts | 249° |
| 2026-04-27 07:06 | 28.62666 | 116.19332 | 31982 ft | 446 kts | 249° |
| 2026-04-27 07:07 | 28.60286 | 116.12802 | 31981 ft | 447 kts | 249° |
| 2026-04-27 07:07 | 28.57915 | 116.06273 | 31980 ft | 446 kts | 249° |
| 2026-04-27 07:08 | 28.55538 | 115.99752 | 31979 ft | 446 kts | 249° |
| 2026-04-27 07:08 | 28.53301 | 115.93232 | 31977 ft | 444 kts | 256° |
| 2026-04-27 07:09 | 28.52150 | 115.86350 | 31977 ft | 443 kts | 262° |
| 2026-04-27 07:09 | 28.51086 | 115.79443 | 31979 ft | 444 kts | 261° |
| 2026-04-27 07:10 | 28.50025 | 115.72526 | 31982 ft | 444 kts | 262° |
| 2026-04-27 07:10 | 28.48964 | 115.65610 | 31987 ft | 444 kts | 262° |
| 2026-04-27 07:11 | 28.47934 | 115.58687 | 31991 ft | 444 kts | 263° |
| 2026-04-27 07:11 | 28.46986 | 115.51754 | 31989 ft | 444 kts | 263° |
| 2026-04-27 07:12 | 28.46044 | 115.44818 | 31986 ft | 444 kts | 263° |
| 2026-04-27 07:12 | 28.45085 | 115.37884 | 31965 ft | 445 kts | 262° |
| 2026-04-27 07:13 | 28.44107 | 115.30931 | 31965 ft | 446 kts | 262° |
| 2026-04-27 07:13 | 28.43124 | 115.23975 | 31971 ft | 446 kts | 262° |
| 2026-04-27 07:14 | 28.42139 | 115.17014 | 31974 ft | 446 kts | 262° |
| 2026-04-27 07:14 | 28.41152 | 115.10056 | 31980 ft | 446 kts | 262° |
| 2026-04-27 07:15 | 28.40161 | 115.03099 | 31972 ft | 446 kts | 262° |
| 2026-04-27 07:15 | 28.39164 | 114.96147 | 31972 ft | 446 kts | 262° |
| 2026-04-27 07:16 | 28.38169 | 114.89245 | 31971 ft | 446 kts | 262° |
| 2026-04-27 07:16 | 28.37164 | 114.82295 | 31973 ft | 446 kts | 262° |
| 2026-04-27 07:17 | 28.36155 | 114.75303 | 31972 ft | 446 kts | 262° |
| 2026-04-27 07:17 | 28.35151 | 114.68359 | 31970 ft | 445 kts | 262° |
| 2026-04-27 07:18 | 28.34138 | 114.61426 | 31960 ft | 445 kts | 262° |
| 2026-04-27 07:18 | 28.33126 | 114.54530 | 31959 ft | 446 kts | 262° |
| 2026-04-27 07:19 | 28.32108 | 114.47580 | 31968 ft | 447 kts | 262° |
| 2026-04-27 07:19 | 28.31082 | 114.40615 | 31975 ft | 448 kts | 261° |
| 2026-04-27 07:20 | 28.30093 | 114.33642 | 31971 ft | 448 kts | 263° |
| 2026-04-27 07:20 | 28.29296 | 114.26636 | 31981 ft | 448 kts | 264° |
| 2026-04-27 07:21 | 28.28549 | 114.19629 | 31990 ft | 448 kts | 264° |
| 2026-04-27 07:21 | 28.27752 | 114.12626 | 31978 ft | 448 kts | 263° |
| 2026-04-27 07:22 | 28.26917 | 114.05621 | 31982 ft | 448 kts | 263° |
| 2026-04-27 07:22 | 28.26082 | 113.98622 | 31978 ft | 448 kts | 263° |
| 2026-04-27 07:23 | 28.25253 | 113.91625 | 31984 ft | 448 kts | 263° |
| 2026-04-27 07:23 | 28.24423 | 113.84628 | 31979 ft | 448 kts | 263° |
| 2026-04-27 07:24 | 28.23733 | 113.78814 | 31974 ft | 448 kts | 263° |
| 2026-04-27 07:24 | 28.22897 | 113.71824 | 31961 ft | 447 kts | 263° |
| 2026-04-27 07:25 | 28.22051 | 113.64834 | 31961 ft | 447 kts | 263° |
| 2026-04-27 07:25 | 28.21200 | 113.57847 | 31957 ft | 447 kts | 263° |
| 2026-04-27 07:26 | 28.20350 | 113.50866 | 31960 ft | 447 kts | 263° |
| 2026-04-27 07:26 | 28.19497 | 113.43885 | 31957 ft | 447 kts | 263° |
| 2026-04-27 07:27 | 28.18643 | 113.36905 | 31984 ft | 447 kts | 262° |
| 2026-04-27 07:27 | 28.17781 | 113.29932 | 31985 ft | 447 kts | 262° |
| 2026-04-27 07:28 | 28.16923 | 113.22967 | 31974 ft | 446 kts | 262° |
| 2026-04-27 07:28 | 28.16060 | 113.16007 | 31977 ft | 446 kts | 262° |
| 2026-04-27 07:29 | 28.15194 | 113.09048 | 31968 ft | 446 kts | 262° |
| 2026-04-27 07:29 | 28.14337 | 113.02132 | 31967 ft | 446 kts | 262° |
| 2026-04-27 07:30 | 28.13595 | 112.95160 | 31962 ft | 446 kts | 269° |
| 2026-04-27 07:30 | 28.13940 | 112.88148 | 31956 ft | 446 kts | 274° |
| 2026-04-27 07:31 | 28.14354 | 112.81135 | 31951 ft | 446 kts | 273° |
| 2026-04-27 07:31 | 28.14751 | 112.74114 | 31951 ft | 447 kts | 273° |
| 2026-04-27 07:32 | 28.15148 | 112.67086 | 31949 ft | 447 kts | 273° |
| 2026-04-27 07:32 | 28.15545 | 112.60062 | 31956 ft | 447 kts | 274° |
| 2026-04-27 07:33 | 28.15945 | 112.53040 | 31958 ft | 446 kts | 274° |
| 2026-04-27 07:33 | 28.16338 | 112.46026 | 31959 ft | 446 kts | 273° |
| 2026-04-27 07:34 | 28.16721 | 112.39008 | 31963 ft | 446 kts | 273° |
| 2026-04-27 07:34 | 28.17107 | 112.32004 | 31964 ft | 445 kts | 273° |
| 2026-04-27 07:35 | 28.17481 | 112.25051 | 31963 ft | 445 kts | 273° |
| 2026-04-27 07:35 | 28.17961 | 112.18059 | 31960 ft | 445 kts | 276° |
| 2026-04-27 07:36 | 28.18814 | 112.11112 | 31960 ft | 445 kts | 278° |
| 2026-04-27 07:36 | 28.19759 | 112.04173 | 31958 ft | 445 kts | 278° |
| 2026-04-27 07:37 | 28.20981 | 111.97303 | 31958 ft | 446 kts | 288° |
| 2026-04-27 07:37 | 28.23885 | 111.91084 | 31959 ft | 449 kts | 301° |
| 2026-04-27 07:38 | 28.27306 | 111.85148 | 31955 ft | 450 kts | 301° |
| 2026-04-27 07:38 | 28.30717 | 111.79198 | 31968 ft | 450 kts | 301° |
| 2026-04-27 07:39 | 28.34121 | 111.73230 | 31958 ft | 451 kts | 300° |
| 2026-04-27 07:39 | 28.37532 | 111.67245 | 31956 ft | 452 kts | 300° |
| 2026-04-27 07:40 | 28.40954 | 111.61234 | 31940 ft | 454 kts | 300° |
| 2026-04-27 07:40 | 28.44392 | 111.55192 | 31951 ft | 456 kts | 301° |
| 2026-04-27 07:41 | 28.47839 | 111.49137 | 31946 ft | 457 kts | 300° |
| 2026-04-27 07:41 | 28.51290 | 111.43060 | 31954 ft | 458 kts | 300° |
| 2026-04-27 07:42 | 28.54739 | 111.36974 | 31962 ft | 458 kts | 300° |
| 2026-04-27 07:42 | 28.58169 | 111.30922 | 31968 ft | 458 kts | 300° |
| 2026-04-27 07:43 | 28.61618 | 111.24829 | 31967 ft | 458 kts | 300° |
| 2026-04-27 07:43 | 28.65058 | 111.18730 | 31966 ft | 458 kts | 300° |
| 2026-04-27 07:44 | 28.68508 | 111.12642 | 31964 ft | 458 kts | 301° |
| 2026-04-27 07:44 | 28.71998 | 111.06558 | 31970 ft | 459 kts | 301° |
| 2026-04-27 07:45 | 28.75500 | 111.00460 | 31969 ft | 460 kts | 301° |
| 2026-04-27 07:45 | 28.78994 | 110.94339 | 31973 ft | 461 kts | 301° |
| 2026-04-27 07:46 | 28.82486 | 110.88202 | 31976 ft | 461 kts | 301° |
| 2026-04-27 07:46 | 28.85986 | 110.82069 | 31985 ft | 461 kts | 301° |
| 2026-04-27 07:47 | 28.89479 | 110.75935 | 31990 ft | 461 kts | 301° |
| 2026-04-27 07:47 | 28.92961 | 110.69794 | 31979 ft | 461 kts | 301° |
| 2026-04-27 07:48 | 28.96439 | 110.63645 | 31980 ft | 461 kts | 301° |
| 2026-04-27 07:48 | 28.99917 | 110.57493 | 31978 ft | 461 kts | 301° |
| 2026-04-27 07:49 | 29.03388 | 110.51349 | 31977 ft | 460 kts | 301° |
| 2026-04-27 07:49 | 29.06857 | 110.45195 | 31970 ft | 460 kts | 301° |
| 2026-04-27 07:50 | 29.09765 | 110.38747 | 32003 ft | 455 kts | 287° |
| 2026-04-27 07:50 | 29.11317 | 110.31766 | 32001 ft | 452 kts | 283° |
| 2026-04-27 07:51 | 29.12811 | 110.24778 | 32001 ft | 452 kts | 283° |
| 2026-04-27 07:51 | 29.14297 | 110.17803 | 31995 ft | 451 kts | 283° |
| 2026-04-27 07:52 | 29.15780 | 110.10823 | 31983 ft | 452 kts | 283° |
| 2026-04-27 07:52 | 29.17255 | 110.03840 | 31976 ft | 452 kts | 283° |
| 2026-04-27 07:53 | 29.18733 | 109.96842 | 31973 ft | 453 kts | 283° |
| 2026-04-27 07:53 | 29.20205 | 109.89873 | 31969 ft | 453 kts | 283° |
| 2026-04-27 07:54 | 29.21689 | 109.82829 | 31969 ft | 452 kts | 283° |
| 2026-04-27 07:54 | 29.23146 | 109.75816 | 31965 ft | 453 kts | 282° |
| 2026-04-27 07:55 | 29.24299 | 109.68727 | 31967 ft | 454 kts | 271° |
| 2026-04-27 07:55 | 29.23328 | 109.61629 | 31964 ft | 455 kts | 250° |
| 2026-04-27 07:56 | 29.20128 | 109.55384 | 31957 ft | 458 kts | 235° |
| 2026-04-27 07:56 | 29.16379 | 109.49550 | 31976 ft | 458 kts | 235° |
| 2026-04-27 07:57 | 29.12615 | 109.43671 | 31970 ft | 458 kts | 235° |
| 2026-04-27 07:57 | 29.08843 | 109.37783 | 31950 ft | 460 kts | 235° |
| 2026-04-27 07:58 | 29.05053 | 109.31881 | 31958 ft | 461 kts | 235° |
| 2026-04-27 07:58 | 29.01252 | 109.25977 | 31958 ft | 461 kts | 235° |
| 2026-04-27 07:59 | 28.97435 | 109.20078 | 31959 ft | 462 kts | 235° |
| 2026-04-27 07:59 | 28.91730 | 109.11237 | 31980 ft | 460 kts | 235° |
| 2026-04-27 08:00 | 28.87926 | 109.05350 | 31972 ft | 462 kts | 235° |
| 2026-04-27 08:00 | 28.84097 | 108.99458 | 31963 ft | 462 kts | 235° |
| 2026-04-27 08:01 | 28.80266 | 108.93555 | 31959 ft | 463 kts | 236° |
| 2026-04-27 08:01 | 28.77394 | 108.87050 | 31960 ft | 460 kts | 254° |
| 2026-04-27 08:02 | 28.75893 | 108.79962 | 31958 ft | 460 kts | 257° |
| 2026-04-27 08:02 | 28.74432 | 108.72858 | 31956 ft | 461 kts | 257° |
| 2026-04-27 08:03 | 28.72956 | 108.65740 | 31955 ft | 462 kts | 257° |
| 2026-04-27 08:03 | 28.71476 | 108.58603 | 31959 ft | 463 kts | 257° |
| 2026-04-27 08:04 | 28.69990 | 108.51463 | 31962 ft | 463 kts | 257° |
| 2026-04-27 08:04 | 28.68501 | 108.44325 | 31965 ft | 463 kts | 257° |
| 2026-04-27 08:05 | 28.67009 | 108.37190 | 31971 ft | 463 kts | 257° |
| 2026-04-27 08:05 | 28.65520 | 108.30064 | 31972 ft | 463 kts | 257° |
| 2026-04-27 08:06 | 28.64027 | 108.22936 | 31973 ft | 463 kts | 257° |
| 2026-04-27 08:06 | 28.62520 | 108.15820 | 31973 ft | 462 kts | 257° |
| 2026-04-27 08:07 | 28.61018 | 108.08709 | 31972 ft | 462 kts | 257° |
| 2026-04-27 08:07 | 28.59517 | 108.01597 | 31971 ft | 462 kts | 257° |
| 2026-04-27 08:08 | 28.58016 | 107.94531 | 31959 ft | 463 kts | 257° |
| 2026-04-27 08:08 | 28.56500 | 107.87412 | 31965 ft | 463 kts | 257° |
| 2026-04-27 08:09 | 28.54983 | 107.80289 | 31967 ft | 463 kts | 257° |
| 2026-04-27 08:09 | 28.53455 | 107.73166 | 31972 ft | 463 kts | 257° |
| 2026-04-27 08:10 | 28.51923 | 107.66053 | 31978 ft | 463 kts | 257° |
| 2026-04-27 08:10 | 28.50386 | 107.58945 | 31986 ft | 463 kts | 257° |
| 2026-04-27 08:11 | 28.48854 | 107.51836 | 31991 ft | 463 kts | 257° |
| 2026-04-27 08:11 | 28.47327 | 107.44732 | 31999 ft | 463 kts | 257° |
| 2026-04-27 08:12 | 28.46032 | 107.38778 | 32004 ft | 463 kts | 257° |
| 2026-04-27 08:12 | 28.44489 | 107.31740 | 32016 ft | 462 kts | 257° |
| 2026-04-27 08:13 | 28.42945 | 107.24665 | 32018 ft | 461 kts | 257° |
| 2026-04-27 08:13 | 28.41400 | 107.17596 | 32012 ft | 461 kts | 257° |
| 2026-04-27 08:14 | 28.39850 | 107.10528 | 32002 ft | 461 kts | 257° |
| 2026-04-27 08:14 | 28.38293 | 107.03462 | 32012 ft | 461 kts | 257° |
| 2026-04-27 08:15 | 28.36744 | 106.96391 | 32018 ft | 461 kts | 257° |
| 2026-04-27 08:15 | 28.35187 | 106.89324 | 32028 ft | 461 kts | 257° |